sensor_id;sensor_type;location;lat;lon;timestamp;temperature;humidity
16287;DHT22;8251;53.568;10.018;2023-05-07T00:01:07;12.50;82.90
16287;DHT22;8251;53.568;10.018;2023-05-07T00:03:35;12.50;82.60
16287;DHT22;8251;53.568;10.018;2023-05-07T00:06:02;12.50;83.40
16287;DHT22;8251;53.568;10.018;2023-05-07T00:08:29;12.60;82.60
16287;DHT22;8251;53.568;10.018;2023-05-07T00:10:56;12.50;82.40
16287;DHT22;8251;53.568;10.018;2023-05-07T00:13:24;12.50;82.50
16287;DHT22;8251;53.568;10.018;2023-05-07T00:15:51;12.50;82.50
16287;DHT22;8251;53.568;10.018;2023-05-07T00:18:18;12.60;82.40
16287;DHT22;8251;53.568;10.018;2023-05-07T00:20:48;12.60;82.30
16287;DHT22;8251;53.568;10.018;2023-05-07T00:23:15;12.60;82.10
16287;DHT22;8251;53.568;10.018;2023-05-07T00:25:42;12.60;82.10
16287;DHT22;8251;53.568;10.018;2023-05-07T00:28:09;12.60;82.40
16287;DHT22;8251;53.568;10.018;2023-05-07T00:30:37;12.60;82.40
16287;DHT22;8251;53.568;10.018;2023-05-07T00:33:04;12.70;82.40
16287;DHT22;8251;53.568;10.018;2023-05-07T00:35:30;12.70;82.30
16287;DHT22;8251;53.568;10.018;2023-05-07T00:37:57;12.80;82.20
16287;DHT22;8251;53.568;10.018;2023-05-07T00:40:24;12.70;82.00
16287;DHT22;8251;53.568;10.018;2023-05-07T00:42:51;12.80;81.80
16287;DHT22;8251;53.568;10.018;2023-05-07T00:45:26;12.80;81.80
16287;DHT22;8251;53.568;10.018;2023-05-07T00:47:55;12.80;81.80
16287;DHT22;8251;53.568;10.018;2023-05-07T00:50:23;12.80;81.80
16287;DHT22;8251;53.568;10.018;2023-05-07T00:52:50;12.80;81.80
16287;DHT22;8251;53.568;10.018;2023-05-07T00:55:18;12.80;81.80
16287;DHT22;8251;53.568;10.018;2023-05-07T00:57:45;12.80;81.80
16287;DHT22;8251;53.568;10.018;2023-05-07T01:00:13;12.80;81.80
16287;DHT22;8251;53.568;10.018;2023-05-07T01:02:40;12.80;81.90
16287;DHT22;8251;53.568;10.018;2023-05-07T01:05:10;12.80;82.00
16287;DHT22;8251;53.568;10.018;2023-05-07T01:07:38;12.80;81.60
16287;DHT22;8251;53.568;10.018;2023-05-07T01:10:07;12.80;81.70
16287;DHT22;8251;53.568;10.018;2023-05-07T01:12:35;12.80;81.70
16287;DHT22;8251;53.568;10.018;2023-05-07T01:15:04;12.80;81.50
16287;DHT22;8251;53.568;10.018;2023-05-07T01:17:33;12.80;81.30
16287;DHT22;8251;53.568;10.018;2023-05-07T01:20:01;12.80;81.50
16287;DHT22;8251;53.568;10.018;2023-05-07T01:22:32;12.70;81.20
16287;DHT22;8251;53.568;10.018;2023-05-07T01:25:00;12.80;81.20
16287;DHT22;8251;53.568;10.018;2023-05-07T01:27:28;12.70;81.00
16287;DHT22;8251;53.568;10.018;2023-05-07T01:29:55;12.80;81.00
16287;DHT22;8251;53.568;10.018;2023-05-07T01:32:25;12.80;80.80
16287;DHT22;8251;53.568;10.018;2023-05-07T01:34:54;12.80;80.50
16287;DHT22;8251;53.568;10.018;2023-05-07T01:37:22;12.80;80.50
16287;DHT22;8251;53.568;10.018;2023-05-07T01:39:52;12.80;81.00
16287;DHT22;8251;53.568;10.018;2023-05-07T01:42:19;12.80;80.40
16287;DHT22;8251;53.568;10.018;2023-05-07T01:44:47;12.70;80.30
16287;DHT22;8251;53.568;10.018;2023-05-07T01:47:14;12.70;80.40
16287;DHT22;8251;53.568;10.018;2023-05-07T01:49:42;12.80;80.50
16287;DHT22;8251;53.568;10.018;2023-05-07T01:52:10;12.70;80.40
16287;DHT22;8251;53.568;10.018;2023-05-07T01:54:37;12.70;80.30
16287;DHT22;8251;53.568;10.018;2023-05-07T01:57:05;12.70;80.40
16287;DHT22;8251;53.568;10.018;2023-05-07T01:59:32;12.70;80.40
16287;DHT22;8251;53.568;10.018;2023-05-07T02:01:59;12.70;80.40
16287;DHT22;8251;53.568;10.018;2023-05-07T02:04:26;12.60;80.20
16287;DHT22;8251;53.568;10.018;2023-05-07T02:06:53;12.50;80.20
16287;DHT22;8251;53.568;10.018;2023-05-07T02:09:20;12.50;80.40
16287;DHT22;8251;53.568;10.018;2023-05-07T02:11:47;12.60;80.60
16287;DHT22;8251;53.568;10.018;2023-05-07T02:14:15;12.60;80.60
16287;DHT22;8251;53.568;10.018;2023-05-07T02:16:42;12.60;80.60
16287;DHT22;8251;53.568;10.018;2023-05-07T02:19:09;12.60;80.70
16287;DHT22;8251;53.568;10.018;2023-05-07T02:21:36;12.60;80.80
16287;DHT22;8251;53.568;10.018;2023-05-07T02:24:03;12.60;81.10
16287;DHT22;8251;53.568;10.018;2023-05-07T02:26:30;12.60;81.20
16287;DHT22;8251;53.568;10.018;2023-05-07T02:28:57;12.60;81.30
16287;DHT22;8251;53.568;10.018;2023-05-07T02:31:25;12.70;81.30
16287;DHT22;8251;53.568;10.018;2023-05-07T02:33:53;12.70;81.20
16287;DHT22;8251;53.568;10.018;2023-05-07T02:36:19;12.70;80.90
16287;DHT22;8251;53.568;10.018;2023-05-07T02:38:46;12.70;81.00
16287;DHT22;8251;53.568;10.018;2023-05-07T02:41:13;12.60;81.30
16287;DHT22;8251;53.568;10.018;2023-05-07T02:43:40;12.60;81.40
16287;DHT22;8251;53.568;10.018;2023-05-07T02:46:08;12.60;81.60
16287;DHT22;8251;53.568;10.018;2023-05-07T02:48:36;12.60;81.50
16287;DHT22;8251;53.568;10.018;2023-05-07T02:51:04;12.60;81.50
16287;DHT22;8251;53.568;10.018;2023-05-07T02:53:32;12.60;81.40
16287;DHT22;8251;53.568;10.018;2023-05-07T02:56:00;12.60;81.50
16287;DHT22;8251;53.568;10.018;2023-05-07T02:58:27;12.50;81.70
16287;DHT22;8251;53.568;10.018;2023-05-07T03:00:54;12.50;81.70
16287;DHT22;8251;53.568;10.018;2023-05-07T03:03:21;12.50;81.90
16287;DHT22;8251;53.568;10.018;2023-05-07T03:05:49;12.50;81.90
16287;DHT22;8251;53.568;10.018;2023-05-07T03:08:16;12.50;81.80
16287;DHT22;8251;53.568;10.018;2023-05-07T03:10:43;12.50;82.00
16287;DHT22;8251;53.568;10.018;2023-05-07T03:13:10;12.40;81.70
16287;DHT22;8251;53.568;10.018;2023-05-07T03:15:37;12.40;82.10
16287;DHT22;8251;53.568;10.018;2023-05-07T03:18:04;12.30;82.10
16287;DHT22;8251;53.568;10.018;2023-05-07T03:20:31;12.30;82.50
16287;DHT22;8251;53.568;10.018;2023-05-07T03:22:59;12.30;82.90
16287;DHT22;8251;53.568;10.018;2023-05-07T03:25:28;12.30;82.80
16287;DHT22;8251;53.568;10.018;2023-05-07T03:27:55;12.30;82.90
16287;DHT22;8251;53.568;10.018;2023-05-07T03:30:22;12.30;83.10
16287;DHT22;8251;53.568;10.018;2023-05-07T03:32:49;12.20;82.80
16287;DHT22;8251;53.568;10.018;2023-05-07T03:35:16;12.30;83.00
16287;DHT22;8251;53.568;10.018;2023-05-07T03:37:43;12.30;82.80
16287;DHT22;8251;53.568;10.018;2023-05-07T03:40:12;12.40;82.70
16287;DHT22;8251;53.568;10.018;2023-05-07T03:42:39;12.40;82.50
16287;DHT22;8251;53.568;10.018;2023-05-07T03:45:07;12.40;82.10
16287;DHT22;8251;53.568;10.018;2023-05-07T03:47:34;12.40;82.10
16287;DHT22;8251;53.568;10.018;2023-05-07T03:50:01;12.40;81.90
16287;DHT22;8251;53.568;10.018;2023-05-07T03:52:28;12.30;81.50
16287;DHT22;8251;53.568;10.018;2023-05-07T03:54:55;12.40;81.60
16287;DHT22;8251;53.568;10.018;2023-05-07T03:57:24;12.40;81.70
16287;DHT22;8251;53.568;10.018;2023-05-07T03:59:50;12.50;81.50
16287;DHT22;8251;53.568;10.018;2023-05-07T04:02:17;12.50;81.30
16287;DHT22;8251;53.568;10.018;2023-05-07T04:04:44;12.60;80.60
16287;DHT22;8251;53.568;10.018;2023-05-07T04:07:11;12.50;80.20
16287;DHT22;8251;53.568;10.018;2023-05-07T04:09:38;12.50;80.20
16287;DHT22;8251;53.568;10.018;2023-05-07T04:12:05;12.50;80.20
16287;DHT22;8251;53.568;10.018;2023-05-07T04:14:33;12.60;80.20
16287;DHT22;8251;53.568;10.018;2023-05-07T04:17:00;12.60;80.00
16287;DHT22;8251;53.568;10.018;2023-05-07T04:19:28;12.70;79.90
16287;DHT22;8251;53.568;10.018;2023-05-07T04:21:55;12.60;79.90
16287;DHT22;8251;53.568;10.018;2023-05-07T04:24:26;12.60;80.00
16287;DHT22;8251;53.568;10.018;2023-05-07T04:27:00;12.70;80.20
16287;DHT22;8251;53.568;10.018;2023-05-07T04:29:30;12.70;80.00
16287;DHT22;8251;53.568;10.018;2023-05-07T04:31:58;12.70;79.80
16287;DHT22;8251;53.568;10.018;2023-05-07T04:34:25;12.60;79.90
16287;DHT22;8251;53.568;10.018;2023-05-07T04:36:52;12.60;80.10
16287;DHT22;8251;53.568;10.018;2023-05-07T04:39:19;12.60;80.20
16287;DHT22;8251;53.568;10.018;2023-05-07T04:41:46;12.60;80.00
16287;DHT22;8251;53.568;10.018;2023-05-07T04:44:13;12.60;79.80
16287;DHT22;8251;53.568;10.018;2023-05-07T04:46:40;12.60;79.90
16287;DHT22;8251;53.568;10.018;2023-05-07T04:49:09;12.60;79.70
16287;DHT22;8251;53.568;10.018;2023-05-07T04:51:36;12.60;79.50
16287;DHT22;8251;53.568;10.018;2023-05-07T04:54:04;12.50;79.10
16287;DHT22;8251;53.568;10.018;2023-05-07T04:56:30;12.50;79.30
16287;DHT22;8251;53.568;10.018;2023-05-07T04:58:57;12.60;79.30
16287;DHT22;8251;53.568;10.018;2023-05-07T05:01:24;12.50;79.20
16287;DHT22;8251;53.568;10.018;2023-05-07T05:03:51;12.50;79.20
16287;DHT22;8251;53.568;10.018;2023-05-07T05:06:20;12.50;79.20
16287;DHT22;8251;53.568;10.018;2023-05-07T05:08:47;12.60;79.10
16287;DHT22;8251;53.568;10.018;2023-05-07T05:11:14;12.60;79.10
16287;DHT22;8251;53.568;10.018;2023-05-07T05:13:41;12.60;79.00
16287;DHT22;8251;53.568;10.018;2023-05-07T05:16:07;12.60;79.20
16287;DHT22;8251;53.568;10.018;2023-05-07T05:18:35;12.60;79.00
16287;DHT22;8251;53.568;10.018;2023-05-07T05:21:01;12.60;79.00
16287;DHT22;8251;53.568;10.018;2023-05-07T05:23:30;12.60;79.00
16287;DHT22;8251;53.568;10.018;2023-05-07T05:25:57;12.60;78.90
16287;DHT22;8251;53.568;10.018;2023-05-07T05:28:25;12.60;79.10
16287;DHT22;8251;53.568;10.018;2023-05-07T05:30:53;12.60;79.20
16287;DHT22;8251;53.568;10.018;2023-05-07T05:33:19;12.60;79.30
16287;DHT22;8251;53.568;10.018;2023-05-07T05:35:46;12.60;79.40
16287;DHT22;8251;53.568;10.018;2023-05-07T05:38:14;12.60;79.30
16287;DHT22;8251;53.568;10.018;2023-05-07T05:40:42;12.60;79.50
16287;DHT22;8251;53.568;10.018;2023-05-07T05:43:11;12.70;79.50
16287;DHT22;8251;53.568;10.018;2023-05-07T05:45:39;12.70;79.30
16287;DHT22;8251;53.568;10.018;2023-05-07T05:48:08;12.60;79.50
16287;DHT22;8251;53.568;10.018;2023-05-07T05:50:36;12.60;79.70
16287;DHT22;8251;53.568;10.018;2023-05-07T05:53:05;12.60;79.70
16287;DHT22;8251;53.568;10.018;2023-05-07T05:55:32;12.70;79.60
16287;DHT22;8251;53.568;10.018;2023-05-07T05:58:02;12.70;79.30
16287;DHT22;8251;53.568;10.018;2023-05-07T06:00:30;12.80;79.30
16287;DHT22;8251;53.568;10.018;2023-05-07T06:02:57;12.80;79.30
16287;DHT22;8251;53.568;10.018;2023-05-07T06:05:24;12.90;79.40
16287;DHT22;8251;53.568;10.018;2023-05-07T06:07:51;12.90;79.10
16287;DHT22;8251;53.568;10.018;2023-05-07T06:10:18;12.90;78.90
16287;DHT22;8251;53.568;10.018;2023-05-07T06:12:45;12.90;78.80
16287;DHT22;8251;53.568;10.018;2023-05-07T06:15:14;12.80;79.10
16287;DHT22;8251;53.568;10.018;2023-05-07T06:17:41;12.80;78.90
16287;DHT22;8251;53.568;10.018;2023-05-07T06:20:08;12.90;78.90
16287;DHT22;8251;53.568;10.018;2023-05-07T06:22:35;12.90;78.40
16287;DHT22;8251;53.568;10.018;2023-05-07T06:25:02;12.90;78.50
16287;DHT22;8251;53.568;10.018;2023-05-07T06:27:29;13.00;78.50
16287;DHT22;8251;53.568;10.018;2023-05-07T06:29:56;13.00;78.30
16287;DHT22;8251;53.568;10.018;2023-05-07T06:32:25;13.00;78.30
16287;DHT22;8251;53.568;10.018;2023-05-07T06:34:52;13.10;78.10
16287;DHT22;8251;53.568;10.018;2023-05-07T06:37:18;13.10;78.10
16287;DHT22;8251;53.568;10.018;2023-05-07T06:39:45;13.10;78.00
16287;DHT22;8251;53.568;10.018;2023-05-07T06:42:12;13.10;78.10
16287;DHT22;8251;53.568;10.018;2023-05-07T06:44:39;13.00;78.30
16287;DHT22;8251;53.568;10.018;2023-05-07T06:47:06;13.00;78.30
16287;DHT22;8251;53.568;10.018;2023-05-07T06:49:34;13.00;78.40
16287;DHT22;8251;53.568;10.018;2023-05-07T06:52:01;13.10;78.40
16287;DHT22;8251;53.568;10.018;2023-05-07T06:54:28;13.10;78.60
16287;DHT22;8251;53.568;10.018;2023-05-07T06:56:56;13.10;78.40
16287;DHT22;8251;53.568;10.018;2023-05-07T06:59:25;13.20;78.20
16287;DHT22;8251;53.568;10.018;2023-05-07T07:01:52;13.20;77.90
16287;DHT22;8251;53.568;10.018;2023-05-07T07:04:19;13.10;77.90
16287;DHT22;8251;53.568;10.018;2023-05-07T07:06:51;13.00;78.10
16287;DHT22;8251;53.568;10.018;2023-05-07T07:09:18;13.00;78.30
16287;DHT22;8251;53.568;10.018;2023-05-07T07:11:45;13.10;78.30
16287;DHT22;8251;53.568;10.018;2023-05-07T07:14:12;13.10;78.30
16287;DHT22;8251;53.568;10.018;2023-05-07T07:16:39;13.20;78.10
16287;DHT22;8251;53.568;10.018;2023-05-07T07:19:06;13.20;77.80
16287;DHT22;8251;53.568;10.018;2023-05-07T07:21:34;13.20;78.00
16287;DHT22;8251;53.568;10.018;2023-05-07T07:24:02;13.30;77.90
16287;DHT22;8251;53.568;10.018;2023-05-07T07:26:29;13.30;77.80
16287;DHT22;8251;53.568;10.018;2023-05-07T07:28:56;13.40;77.70
16287;DHT22;8251;53.568;10.018;2023-05-07T07:31:23;13.50;77.50
16287;DHT22;8251;53.568;10.018;2023-05-07T07:33:50;13.50;77.00
16287;DHT22;8251;53.568;10.018;2023-05-07T07:36:17;13.50;77.10
16287;DHT22;8251;53.568;10.018;2023-05-07T07:38:44;13.60;77.00
16287;DHT22;8251;53.568;10.018;2023-05-07T07:41:12;13.60;76.60
16287;DHT22;8251;53.568;10.018;2023-05-07T07:43:39;13.60;76.50
16287;DHT22;8251;53.568;10.018;2023-05-07T07:46:06;13.60;76.30
16287;DHT22;8251;53.568;10.018;2023-05-07T07:48:33;13.50;76.10
16287;DHT22;8251;53.568;10.018;2023-05-07T07:51:00;13.50;76.50
16287;DHT22;8251;53.568;10.018;2023-05-07T07:53:27;13.50;76.50
16287;DHT22;8251;53.568;10.018;2023-05-07T07:55:54;13.50;76.30
16287;DHT22;8251;53.568;10.018;2023-05-07T07:58:22;13.50;76.50
16287;DHT22;8251;53.568;10.018;2023-05-07T08:00:50;13.50;76.60
16287;DHT22;8251;53.568;10.018;2023-05-07T08:03:17;13.60;76.80
16287;DHT22;8251;53.568;10.018;2023-05-07T08:05:45;13.60;76.40
16287;DHT22;8251;53.568;10.018;2023-05-07T08:08:12;13.60;76.60
16287;DHT22;8251;53.568;10.018;2023-05-07T08:10:39;13.60;76.20
16287;DHT22;8251;53.568;10.018;2023-05-07T08:13:06;13.70;75.80
16287;DHT22;8251;53.568;10.018;2023-05-07T08:15:35;13.60;75.90
16287;DHT22;8251;53.568;10.018;2023-05-07T08:18:03;13.70;76.20
16287;DHT22;8251;53.568;10.018;2023-05-07T08:20:30;13.80;76.20
16287;DHT22;8251;53.568;10.018;2023-05-07T08:22:57;13.90;76.00
16287;DHT22;8251;53.568;10.018;2023-05-07T08:25:24;13.90;75.60
16287;DHT22;8251;53.568;10.018;2023-05-07T08:27:51;14.00;75.60
16287;DHT22;8251;53.568;10.018;2023-05-07T08:30:18;14.00;75.30
16287;DHT22;8251;53.568;10.018;2023-05-07T08:32:46;14.00;75.10
16287;DHT22;8251;53.568;10.018;2023-05-07T08:35:13;13.90;74.90
16287;DHT22;8251;53.568;10.018;2023-05-07T08:37:40;13.90;75.30
16287;DHT22;8251;53.568;10.018;2023-05-07T08:40:07;14.00;75.50
16287;DHT22;8251;53.568;10.018;2023-05-07T08:42:36;13.90;75.30
16287;DHT22;8251;53.568;10.018;2023-05-07T08:45:09;13.90;75.40
16287;DHT22;8251;53.568;10.018;2023-05-07T08:47:42;14.00;75.10
16287;DHT22;8251;53.568;10.018;2023-05-07T08:50:12;14.00;75.00
16287;DHT22;8251;53.568;10.018;2023-05-07T08:52:40;14.00;75.30
16287;DHT22;8251;53.568;10.018;2023-05-07T08:55:08;14.10;75.30
16287;DHT22;8251;53.568;10.018;2023-05-07T08:57:36;14.00;74.90
16287;DHT22;8251;53.568;10.018;2023-05-07T09:00:04;14.00;75.00
16287;DHT22;8251;53.568;10.018;2023-05-07T09:02:32;14.00;74.80
16287;DHT22;8251;53.568;10.018;2023-05-07T09:05:00;14.00;74.90
16287;DHT22;8251;53.568;10.018;2023-05-07T09:07:29;14.10;75.00
16287;DHT22;8251;53.568;10.018;2023-05-07T09:09:57;14.00;74.70
16287;DHT22;8251;53.568;10.018;2023-05-07T09:12:25;14.10;74.50
16287;DHT22;8251;53.568;10.018;2023-05-07T09:14:54;14.20;74.30
16287;DHT22;8251;53.568;10.018;2023-05-07T09:17:21;14.20;74.00
16287;DHT22;8251;53.568;10.018;2023-05-07T09:19:48;14.30;74.20
16287;DHT22;8251;53.568;10.018;2023-05-07T09:22:15;14.30;73.80
16287;DHT22;8251;53.568;10.018;2023-05-07T09:24:47;14.30;73.60
16287;DHT22;8251;53.568;10.018;2023-05-07T09:27:15;14.30;73.80
16287;DHT22;8251;53.568;10.018;2023-05-07T09:29:43;14.40;73.70
16287;DHT22;8251;53.568;10.018;2023-05-07T09:32:10;14.30;73.40
16287;DHT22;8251;53.568;10.018;2023-05-07T09:34:37;14.40;73.60
16287;DHT22;8251;53.568;10.018;2023-05-07T09:37:05;14.40;73.40
16287;DHT22;8251;53.568;10.018;2023-05-07T09:39:39;14.40;73.10
16287;DHT22;8251;53.568;10.018;2023-05-07T09:42:09;14.50;73.30
16287;DHT22;8251;53.568;10.018;2023-05-07T09:44:37;14.60;73.30
16287;DHT22;8251;53.568;10.018;2023-05-07T09:47:06;14.60;73.10
16287;DHT22;8251;53.568;10.018;2023-05-07T09:49:34;14.70;73.00
16287;DHT22;8251;53.568;10.018;2023-05-07T09:52:03;14.70;73.40
16287;DHT22;8251;53.568;10.018;2023-05-07T09:54:32;14.70;72.30
16287;DHT22;8251;53.568;10.018;2023-05-07T09:57:01;14.70;72.30
16287;DHT22;8251;53.568;10.018;2023-05-07T09:59:33;14.80;72.30
16287;DHT22;8251;53.568;10.018;2023-05-07T10:02:01;14.70;71.70
16287;DHT22;8251;53.568;10.018;2023-05-07T10:04:30;14.70;72.00
16287;DHT22;8251;53.568;10.018;2023-05-07T10:06:58;14.80;72.30
16287;DHT22;8251;53.568;10.018;2023-05-07T10:09:26;14.90;71.90
16287;DHT22;8251;53.568;10.018;2023-05-07T10:11:54;14.90;71.90
16287;DHT22;8251;53.568;10.018;2023-05-07T10:14:21;15.00;71.40
16287;DHT22;8251;53.568;10.018;2023-05-07T10:16:51;15.00;71.20
16287;DHT22;8251;53.568;10.018;2023-05-07T10:19:20;14.90;71.30
16287;DHT22;8251;53.568;10.018;2023-05-07T10:21:51;14.90;71.50
16287;DHT22;8251;53.568;10.018;2023-05-07T10:24:26;15.00;71.20
16287;DHT22;8251;53.568;10.018;2023-05-07T10:26:54;15.00;71.20
16287;DHT22;8251;53.568;10.018;2023-05-07T10:29:31;15.00;71.00
16287;DHT22;8251;53.568;10.018;2023-05-07T10:32:19;15.00;70.80
16287;DHT22;8251;53.568;10.018;2023-05-07T10:34:55;15.00;70.50
16287;DHT22;8251;53.568;10.018;2023-05-07T10:37:23;14.80;70.50
16287;DHT22;8251;53.568;10.018;2023-05-07T10:39:51;14.90;70.90
16287;DHT22;8251;53.568;10.018;2023-05-07T10:42:18;14.90;70.90
16287;DHT22;8251;53.568;10.018;2023-05-07T10:44:46;14.90;70.60
16287;DHT22;8251;53.568;10.018;2023-05-07T10:47:16;15.00;71.00
16287;DHT22;8251;53.568;10.018;2023-05-07T10:50:20;15.00;70.60
16287;DHT22;8251;53.568;10.018;2023-05-07T10:53:20;15.10;70.10
16287;DHT22;8251;53.568;10.018;2023-05-07T10:55:51;15.10;70.30
16287;DHT22;8251;53.568;10.018;2023-05-07T10:58:25;15.10;70.40
16287;DHT22;8251;53.568;10.018;2023-05-07T11:00:57;15.10;70.00
16287;DHT22;8251;53.568;10.018;2023-05-07T11:03:26;15.20;70.10
16287;DHT22;8251;53.568;10.018;2023-05-07T11:06:12;15.30;69.90
16287;DHT22;8251;53.568;10.018;2023-05-07T11:08:53;15.30;69.20
16287;DHT22;8251;53.568;10.018;2023-05-07T11:11:46;15.30;69.50
16287;DHT22;8251;53.568;10.018;2023-05-07T11:14:14;15.40;68.60
16287;DHT22;8251;53.568;10.018;2023-05-07T11:16:42;15.40;68.90
16287;DHT22;8251;53.568;10.018;2023-05-07T11:19:11;15.40;68.40
16287;DHT22;8251;53.568;10.018;2023-05-07T11:21:39;15.40;68.10
16287;DHT22;8251;53.568;10.018;2023-05-07T11:24:07;15.40;68.50
16287;DHT22;8251;53.568;10.018;2023-05-07T11:26:47;15.40;68.40
16287;DHT22;8251;53.568;10.018;2023-05-07T11:29:16;15.60;68.10
16287;DHT22;8251;53.568;10.018;2023-05-07T11:31:43;15.60;68.10
16287;DHT22;8251;53.568;10.018;2023-05-07T11:34:11;15.70;68.10
16287;DHT22;8251;53.568;10.018;2023-05-07T11:36:42;15.80;67.80
16287;DHT22;8251;53.568;10.018;2023-05-07T11:39:27;15.90;67.30
16287;DHT22;8251;53.568;10.018;2023-05-07T11:41:54;16.00;67.30
16287;DHT22;8251;53.568;10.018;2023-05-07T11:44:21;16.20;67.40
16287;DHT22;8251;53.568;10.018;2023-05-07T11:46:48;16.40;66.80
16287;DHT22;8251;53.568;10.018;2023-05-07T11:49:17;16.60;66.60
16287;DHT22;8251;53.568;10.018;2023-05-07T11:51:45;16.90;65.60
16287;DHT22;8251;53.568;10.018;2023-05-07T11:54:15;17.00;65.20
16287;DHT22;8251;53.568;10.018;2023-05-07T11:56:44;17.30;64.40
16287;DHT22;8251;53.568;10.018;2023-05-07T11:59:17;17.40;63.10
16287;DHT22;8251;53.568;10.018;2023-05-07T12:01:45;17.50;63.10
16287;DHT22;8251;53.568;10.018;2023-05-07T12:04:13;17.70;62.80
16287;DHT22;8251;53.568;10.018;2023-05-07T12:06:41;17.70;62.20
16287;DHT22;8251;53.568;10.018;2023-05-07T12:09:08;17.80;62.00
16287;DHT22;8251;53.568;10.018;2023-05-07T12:11:37;17.90;61.40
16287;DHT22;8251;53.568;10.018;2023-05-07T12:14:05;17.90;61.30
16287;DHT22;8251;53.568;10.018;2023-05-07T12:16:32;17.90;61.10
16287;DHT22;8251;53.568;10.018;2023-05-07T12:19:00;17.90;61.20
16287;DHT22;8251;53.568;10.018;2023-05-07T12:21:27;17.90;62.30
16287;DHT22;8251;53.568;10.018;2023-05-07T12:23:56;18.00;61.60
16287;DHT22;8251;53.568;10.018;2023-05-07T12:26:23;18.10;61.00
16287;DHT22;8251;53.568;10.018;2023-05-07T12:28:50;18.10;60.60
16287;DHT22;8251;53.568;10.018;2023-05-07T12:31:17;18.10;60.80
16287;DHT22;8251;53.568;10.018;2023-05-07T12:33:46;18.20;61.40
16287;DHT22;8251;53.568;10.018;2023-05-07T12:36:13;18.30;60.00
16287;DHT22;8251;53.568;10.018;2023-05-07T12:38:40;18.30;60.20
16287;DHT22;8251;53.568;10.018;2023-05-07T12:41:10;18.30;59.90
16287;DHT22;8251;53.568;10.018;2023-05-07T12:43:37;18.10;59.80
16287;DHT22;8251;53.568;10.018;2023-05-07T12:46:05;18.10;60.30
16287;DHT22;8251;53.568;10.018;2023-05-07T12:48:33;18.10;60.30
16287;DHT22;8251;53.568;10.018;2023-05-07T12:51:01;18.10;60.50
16287;DHT22;8251;53.568;10.018;2023-05-07T12:53:29;18.20;60.50
16287;DHT22;8251;53.568;10.018;2023-05-07T12:55:58;18.20;60.20
16287;DHT22;8251;53.568;10.018;2023-05-07T12:58:28;18.30;60.40
16287;DHT22;8251;53.568;10.018;2023-05-07T13:00:56;18.40;60.70
16287;DHT22;8251;53.568;10.018;2023-05-07T13:03:26;18.50;60.70
16287;DHT22;8251;53.568;10.018;2023-05-07T13:05:54;18.60;59.70
16287;DHT22;8251;53.568;10.018;2023-05-07T13:08:27;18.60;60.00
16287;DHT22;8251;53.568;10.018;2023-05-07T13:10:54;18.70;60.00
16287;DHT22;8251;53.568;10.018;2023-05-07T13:13:21;18.80;59.40
16287;DHT22;8251;53.568;10.018;2023-05-07T13:15:49;18.80;59.20
16287;DHT22;8251;53.568;10.018;2023-05-07T13:18:16;18.90;60.40
16287;DHT22;8251;53.568;10.018;2023-05-07T13:20:43;18.90;59.00
16287;DHT22;8251;53.568;10.018;2023-05-07T13:23:10;18.90;58.50
16287;DHT22;8251;53.568;10.018;2023-05-07T13:25:37;18.90;58.30
16287;DHT22;8251;53.568;10.018;2023-05-07T13:28:05;18.90;58.60
16287;DHT22;8251;53.568;10.018;2023-05-07T13:30:32;18.80;58.80
16287;DHT22;8251;53.568;10.018;2023-05-07T13:33:00;18.90;59.20
16287;DHT22;8251;53.568;10.018;2023-05-07T13:35:29;19.00;59.50
16287;DHT22;8251;53.568;10.018;2023-05-07T13:38:01;19.00;58.90
16287;DHT22;8251;53.568;10.018;2023-05-07T13:40:30;19.10;58.30
16287;DHT22;8251;53.568;10.018;2023-05-07T13:42:58;19.20;59.00
16287;DHT22;8251;53.568;10.018;2023-05-07T13:45:27;19.30;58.00
16287;DHT22;8251;53.568;10.018;2023-05-07T13:47:55;19.40;58.10
16287;DHT22;8251;53.568;10.018;2023-05-07T13:50:24;19.40;57.70
16287;DHT22;8251;53.568;10.018;2023-05-07T13:52:52;19.40;57.20
16287;DHT22;8251;53.568;10.018;2023-05-07T13:55:20;19.50;57.40
16287;DHT22;8251;53.568;10.018;2023-05-07T13:57:53;19.50;57.40
16287;DHT22;8251;53.568;10.018;2023-05-07T14:00:21;19.60;57.10
16287;DHT22;8251;53.568;10.018;2023-05-07T14:02:48;19.50;55.90
16287;DHT22;8251;53.568;10.018;2023-05-07T14:05:16;19.50;56.60
16287;DHT22;8251;53.568;10.018;2023-05-07T14:07:46;19.50;56.70
16287;DHT22;8251;53.568;10.018;2023-05-07T14:10:17;19.50;56.30
16287;DHT22;8251;53.568;10.018;2023-05-07T14:12:45;19.60;56.10
16287;DHT22;8251;53.568;10.018;2023-05-07T14:15:13;19.70;56.20
16287;DHT22;8251;53.568;10.018;2023-05-07T14:17:40;19.80;55.80
16287;DHT22;8251;53.568;10.018;2023-05-07T14:20:07;19.80;56.00
16287;DHT22;8251;53.568;10.018;2023-05-07T14:22:36;19.90;55.70
16287;DHT22;8251;53.568;10.018;2023-05-07T14:25:11;20.00;55.50
16287;DHT22;8251;53.568;10.018;2023-05-07T14:27:38;20.00;54.90
16287;DHT22;8251;53.568;10.018;2023-05-07T14:30:06;20.00;54.70
16287;DHT22;8251;53.568;10.018;2023-05-07T14:32:34;20.10;55.10
16287;DHT22;8251;53.568;10.018;2023-05-07T14:35:04;20.20;54.90
16287;DHT22;8251;53.568;10.018;2023-05-07T14:37:30;20.30;54.50
16287;DHT22;8251;53.568;10.018;2023-05-07T14:39:58;20.30;54.80
16287;DHT22;8251;53.568;10.018;2023-05-07T14:42:26;20.30;55.20
16287;DHT22;8251;53.568;10.018;2023-05-07T14:44:53;20.50;55.30
16287;DHT22;8251;53.568;10.018;2023-05-07T14:47:20;20.50;54.50
16287;DHT22;8251;53.568;10.018;2023-05-07T14:49:47;20.50;54.80
16287;DHT22;8251;53.568;10.018;2023-05-07T14:52:14;20.60;54.50
16287;DHT22;8251;53.568;10.018;2023-05-07T14:54:42;20.60;53.80
16287;DHT22;8251;53.568;10.018;2023-05-07T14:57:10;20.60;54.10
16287;DHT22;8251;53.568;10.018;2023-05-07T14:59:40;20.70;53.70
16287;DHT22;8251;53.568;10.018;2023-05-07T15:02:07;20.70;54.40
16287;DHT22;8251;53.568;10.018;2023-05-07T15:04:34;20.70;53.20
16287;DHT22;8251;53.568;10.018;2023-05-07T15:07:03;20.70;53.40
16287;DHT22;8251;53.568;10.018;2023-05-07T15:09:36;20.60;53.40
16287;DHT22;8251;53.568;10.018;2023-05-07T15:12:06;20.60;53.50
16287;DHT22;8251;53.568;10.018;2023-05-07T15:14:34;20.50;53.70
16287;DHT22;8251;53.568;10.018;2023-05-07T15:17:03;20.50;53.70
16287;DHT22;8251;53.568;10.018;2023-05-07T15:19:30;20.40;53.60
16287;DHT22;8251;53.568;10.018;2023-05-07T15:21:57;20.20;53.60
16287;DHT22;8251;53.568;10.018;2023-05-07T15:24:25;20.20;53.90
16287;DHT22;8251;53.568;10.018;2023-05-07T15:26:52;20.00;54.30
16287;DHT22;8251;53.568;10.018;2023-05-07T15:29:19;19.90;54.50
16287;DHT22;8251;53.568;10.018;2023-05-07T15:31:46;19.90;55.10
16287;DHT22;8251;53.568;10.018;2023-05-07T15:34:18;19.90;55.10
16287;DHT22;8251;53.568;10.018;2023-05-07T15:36:45;19.90;54.70